Time;durP1;ratioP1;P1;durP2;ratioP2;P2;SDS_P1;SDS_P2;PMS_P1;PMS_P2;Temp;Humidity;BMP_temperature;BMP_pressure;BME280_temperature;BME280_humidity;BME280_pressure;Samples;Min_cycle;Max_cycle;Signal;HPM_P1;HPM_P2
2022/09/25 00:00:53;;;;;;;9.10;4.05;;;;;;;7.62;82.81;97402.78;5044718;28;20049;-69
2022/09/25 00:03:22;;;;;;;6.30;3.90;;;;;;;7.72;83.11;97396.81;5043013;28;20432;-68
2022/09/25 00:05:48;;;;;;;6.22;4.38;;;;;;;7.79;82.72;97401.78;5044595;28;20045;-68
2022/09/25 00:08:16;;;;;;;8.80;4.47;;;;;;;7.31;82.16;97319.81;5044229;28;20202;-68
2022/09/25 00:10:49;;;;;;;6.57;4.75;;;;;;;7.58;82.22;97368.78;5044358;28;20056;-70
2022/09/25 00:13:17;;;;;;;5.63;4.50;;;;;;;7.60;82.53;97394.03;5043552;28;20135;-69
2022/09/25 00:16:04;;;;;;;7.88;5.82;;;;;;;7.37;82.47;97337.75;5044755;28;20178;-68
2022/09/25 00:21:16;;;;;;;10.23;5.93;;;;;;;7.73;81.98;97386.56;5044282;28;20065;-69
2022/09/25 00:23:44;;;;;;;12.15;5.20;;;;;;;7.68;81.88;97382.09;5044480;28;20107;-69
2022/09/25 00:26:13;;;;;;;10.32;5.95;;;;;;;7.61;82.40;97390.16;5044460;28;20048;-69
2022/09/25 00:28:41;;;;;;;8.00;5.20;;;;;;;7.46;82.72;97349.47;5043490;28;20064;-69
2022/09/25 00:31:09;;;;;;;11.02;4.57;;;;;;;7.60;81.47;97363.72;5042589;28;20099;-69
2022/09/25 00:33:36;;;;;;;8.30;5.28;;;;;;;7.70;81.56;97382.56;5044562;28;20789;-68
2022/09/25 00:36:06;;;;;;;6.07;4.47;;;;;;;7.78;81.58;97388.34;5044159;28;20081;-69
2022/09/25 00:38:34;;;;;;;8.35;4.15;;;;;;;7.84;80.91;97386.94;5042720;28;20503;-69
2022/09/25 00:41:01;;;;;;;5.82;4.72;;;;;;;7.80;81.55;97394.28;5044370;28;20119;-69
2022/09/25 00:43:43;;;;;;;6.43;4.43;;;;;;;7.50;81.32;97342.13;5043918;28;20099;-69
2022/09/25 00:46:10;;;;;;;6.32;4.15;;;;;;;7.77;81.93;97375.66;5044396;28;20136;-69
2022/09/25 00:48:42;;;;;;;9.57;4.78;;;;;;;6.79;82.45;97225.19;5042247;28;20111;-69
2022/09/25 00:51:08;;;;;;;5.93;4.35;;;;;;;7.39;82.24;97327.19;5022033;28;20044;-69
2022/09/25 00:53:39;;;;;;;6.15;4.18;;;;;;;7.71;82.10;97367.63;5052220;28;20515;-69
2022/09/25 00:56:09;;;;;;;7.07;4.70;;;;;;;6.94;82.55;97246.53;5042549;28;20111;-69
2022/09/25 00:58:39;;;;;;;9.82;4.43;;;;;;;7.72;81.78;97363.75;5044430;28;20136;-68
2022/09/25 01:01:07;;;;;;;7.97;4.72;;;;;;;7.05;81.83;97280.75;5042232;28;20538;-69
2022/09/25 01:03:35;;;;;;;7.28;4.60;;;;;;;7.64;82.21;97356.38;5044462;28;20045;-68
2022/09/25 01:06:02;;;;;;;7.82;4.43;;;;;;;7.52;83.36;97359.09;5043894;28;20140;-69
2022/09/25 01:08:31;;;;;;;6.78;4.63;;;;;;;7.40;83.23;97355.53;5043223;28;20053;-69
2022/09/25 01:10:58;;;;;;;7.35;4.38;;;;;;;6.98;83.13;97272.25;5043553;28;20118;-70
2022/09/25 01:13:25;;;;;;;6.68;5.07;;;;;;;7.46;83.38;97354.97;5043955;28;20138;-69
2022/09/25 01:15:56;;;;;;;6.47;4.22;;;;;;;7.47;83.74;97351.09;5043443;28;20606;-69
2022/09/25 01:19:10;;;;;;;5.63;3.90;;;;;;;7.47;82.45;97351.09;5044241;28;20141;-69
2022/09/25 01:21:48;;;;;;;4.93;3.70;;;;;;;7.42;82.63;97348.53;5043287;28;20151;-69
2022/09/25 01:24:36;;;;;;;7.10;4.15;;;;;;;7.29;82.93;97348.84;5046894;28;20547;-69
2022/09/25 01:27:29;;;;;;;7.65;5.32;;;;;;;7.17;83.32;97352.41;5046162;28;20061;-69
2022/09/25 01:30:04;;;;;;;8.23;4.07;;;;;;;7.15;83.45;97354.69;5046107;28;20080;-69
2022/09/25 01:32:50;;;;;;;6.85;4.85;;;;;;;7.07;83.87;97352.81;5046416;28;20871;-69
2022/09/25 01:35:41;;;;;;;7.53;4.25;;;;;;;7.06;84.76;97355.94;5047400;28;20522;-69
2022/09/25 01:38:20;;;;;;;5.93;4.28;;;;;;;7.06;84.83;97362.25;5047083;28;20079;-69
2022/09/25 01:41:00;;;;;;;6.28;4.40;;;;;;;7.11;84.48;97359.25;5046715;28;20084;-69
2022/09/25 01:43:33;;;;;;;6.50;4.20;;;;;;;7.09;84.20;97367.06;5047509;28;20567;-69
2022/09/25 01:46:14;;;;;;;6.03;4.00;;;;;;;7.02;84.58;97372.31;5045495;28;20359;-69
2022/09/25 01:48:46;;;;;;;6.00;4.18;;;;;;;6.67;85.12;97313.22;5047538;28;20057;-68
2022/09/25 01:51:29;;;;;;;7.07;4.22;;;;;;;6.52;85.44;97296.53;5046960;28;20142;-69
2022/09/25 01:54:04;;;;;;;7.45;4.80;;;;;;;7.07;85.40;97363.84;5046783;28;20056;-69
2022/09/25 01:56:45;;;;;;;5.70;4.30;;;;;;;7.08;86.32;97359.94;5047019;28;20136;-70
2022/09/25 01:59:26;;;;;;;6.00;4.20;;;;;;;7.10;86.30;97360.41;5045801;28;20139;-70
2022/09/25 02:01:55;;;;;;;6.88;4.35;;;;;;;5.25;85.58;97060.91;5045328;28;20049;-69
2022/09/25 02:04:27;;;;;;;6.78;4.07;;;;;;;7.06;85.79;97351.22;5047029;28;20053;-69
2022/09/25 02:06:59;;;;;;;6.07;4.35;;;;;;;7.10;85.76;97357.66;5045208;28;20056;-70
2022/09/25 02:09:42;;;;;;;7.45;4.65;;;;;;;7.01;85.28;97364.41;5045456;28;20077;-70
2022/09/25 02:12:33;;;;;;;4.88;3.67;;;;;;;7.01;86.12;97359.69;5046652;28;20057;-69
2022/09/25 02:15:08;;;;;;;5.50;3.70;;;;;;;6.61;85.92;97300.81;5045616;28;20081;-69
2022/09/25 02:20:31;;;;;;;7.05;4.03;;;;;;;6.87;86.92;97353.69;5046151;28;20045;-69
2022/09/25 02:23:17;;;;;;;6.22;4.30;;;;;;;4.84;86.19;97029.91;5046567;28;20148;-69
2022/09/25 02:26:08;;;;;;;6.03;3.92;;;;;;;6.86;85.88;97362.28;5044268;28;20535;-69
2022/09/25 02:28:35;;;;;;;9.25;4.90;;;;;;;6.78;85.73;97366.72;5045068;28;20145;-69
2022/09/25 02:31:08;;;;;;;6.97;4.07;;;;;;;6.44;86.32;97314.75;5045822;28;20524;-69
2022/09/25 02:33:35;;;;;;;;;;;;;;;6.74;85.14;97364.97;5046306;28;20091;-68
2022/09/25 02:36:03;;;;;;;5.60;4.07;;;;;;;6.54;86.33;97368.56;5045467;28;20397;-69
2022/09/25 02:38:32;;;;;;;5.93;4.30;;;;;;;6.48;86.96;97362.44;5044619;28;20077;-69
2022/09/25 02:41:26;;;;;;;8.07;4.80;;;;;;;6.42;87.79;97361.03;5044252;28;20060;-69
2022/09/25 02:44:31;;;;;;;7.00;4.63;;;;;;;6.50;87.78;97368.41;5044450;28;20130;-69
2022/09/25 02:47:16;;;;;;;6.55;4.15;;;;;;;6.47;87.75;97355.34;5045810;28;20115;-69
2022/09/25 02:50:08;;;;;;;6.00;4.60;;;;;;;6.53;87.64;97347.69;5045994;28;20053;-69
2022/09/25 02:52:52;;;;;;;6.50;4.47;;;;;;;6.56;86.71;97358.81;5044690;28;20805;-71
2022/09/25 02:55:35;;;;;;;6.25;4.53;;;;;;;5.93;86.50;97273.88;5044056;28;20076;-70
2022/09/25 02:58:10;;;;;;;6.13;4.50;;;;;;;6.48;87.90;97362.44;5044462;28;20485;-69
2022/09/25 03:00:39;;;;;;;5.30;4.10;;;;;;;5.52;87.74;97207.88;5044045;28;20135;-69
2022/09/25 03:03:09;;;;;;;6.22;4.07;;;;;;;6.46;88.35;97359.25;5043838;28;20080;-70
2022/09/25 03:05:36;;;;;;;5.75;4.13;;;;;;;5.92;87.73;97261.28;5045138;28;20089;-68
2022/09/25 03:10:49;;;;;;;5.72;3.75;;;;;;;6.27;88.55;97322.31;5045003;28;20082;-69
2022/09/25 03:13:22;;;;;;;8.60;4.55;;;;;;;6.59;89.55;97358.13;5044873;28;20052;-69
2022/09/25 03:15:57;;;;;;;8.05;4.18;;;;;;;3.78;89.74;96907.81;5043346;28;20065;-69
2022/09/25 03:18:25;;;;;;;6.68;4.45;;;;;;;3.92;88.36;96979.63;5043598;28;20330;-69
2022/09/25 03:20:52;;;;;;;8.18;4.20;;;;;;;5.79;88.65;97273.31;5045054;28;20095;-69
2022/09/25 03:23:18;;;;;;;5.63;4.00;;;;;;;6.39;89.32;97408.47;5045050;28;20061;-69
2022/09/25 03:25:46;;;;;;;9.25;4.03;;;;;;;6.50;89.88;97365.66;5044751;28;20144;-69
2022/09/25 03:28:16;;;;;;;6.18;4.00;;;;;;;4.12;89.13;96994.53;5044690;28;20044;-69
2022/09/25 03:30:43;;;;;;;7.10;3.97;;;;;;;5.35;89.60;97246.44;5044663;28;20056;-69
2022/09/25 03:33:11;;;;;;;6.63;4.60;;;;;;;6.47;90.08;97393.84;5044985;28;20056;-69
2022/09/25 03:35:38;;;;;;;11.88;3.97;;;;;;;6.51;90.09;97367.28;5043352;28;20135;-69
2022/09/25 03:38:09;;;;;;;5.70;4.45;;;;;;;6.52;89.99;97368.91;5043326;28;20096;-69
2022/09/25 03:40:36;;;;;;;9.73;4.70;;;;;;;6.07;90.79;97319.22;5044830;28;20508;-69
2022/09/25 03:43:03;;;;;;;8.75;4.80;;;;;;;6.46;90.85;97374.94;5044813;28;20735;-69
2022/09/25 03:45:28;;;;;;;5.45;3.88;;;;;;;6.04;91.43;97321.84;5044475;28;20114;-69
2022/09/25 03:47:55;;;;;;;5.90;4.57;;;;;;;6.03;90.88;97334.00;5044782;28;20122;-69
2022/09/25 03:50:21;;;;;;;6.22;4.53;;;;;;;5.09;91.88;97183.44;5043210;28;20089;-68
2022/09/25 03:52:48;;;;;;;6.45;3.88;;;;;;;6.32;90.78;97386.22;5041750;28;20056;-69
2022/09/25 03:55:15;;;;;;;6.47;4.07;;;;;;;6.35;90.74;97357.22;5042914;28;20085;-69
2022/09/25 03:57:42;;;;;;;8.25;4.35;;;;;;;5.34;90.66;97189.91;5043287;28;20137;-68
2022/09/25 04:00:09;;;;;;;8.38;4.85;;;;;;;5.02;91.17;97161.19;5043201;28;20060;-69
2022/09/25 04:02:36;;;;;;;13.40;7.40;;;;;;;6.40;91.41;97355.09;5042648;28;20106;-69
2022/09/25 04:05:03;;;;;;;13.82;8.50;;;;;;;6.42;91.69;97347.28;5044551;28;20131;-68
2022/09/25 04:07:29;;;;;;;11.55;7.82;;;;;;;6.35;90.60;97349.78;5044213;28;20087;-68
2022/09/25 04:09:56;;;;;;;9.95;6.28;;;;;;;6.39;88.79;97347.13;5043968;28;20080;-69
2022/09/25 04:12:23;;;;;;;11.80;7.55;;;;;;;6.37;88.15;97355.72;5044480;28;20051;-69
2022/09/25 04:14:49;;;;;;;10.18;7.05;;;;;;;5.79;89.02;97254.06;5042811;28;20517;-69
2022/09/25 04:17:16;;;;;;;12.27;7.40;;;;;;;5.90;89.37;97291.06;5031624;28;20140;-69
2022/09/25 04:19:43;;;;;;;12.05;7.07;;;;;;;5.85;89.41;97305.81;5057291;28;20080;-69
2022/09/25 04:22:10;;;;;;;12.65;8.13;;;;;;;6.40;89.39;97360.59;5042761;28;20056;-69
2022/09/25 04:24:49;;;;;;;16.92;8.18;;;;;;;6.45;88.59;97365.88;5044069;28;20057;-68
2022/09/25 04:27:19;;;;;;;10.52;6.93;;;;;;;6.47;89.28;97371.84;5042741;28;20161;-69
2022/09/25 04:29:46;;;;;;;14.65;7.82;;;;;;;5.07;89.15;97152.78;5043852;28;20494;-68
2022/09/25 04:35:00;;;;;;;15.57;7.97;;;;;;;6.62;87.79;97363.00;5044646;28;20133;-68
2022/09/25 04:37:28;;;;;;;8.57;5.82;;;;;;;6.69;88.12;97366.00;5044412;28;20053;-68
2022/09/25 04:39:56;;;;;;;9.18;5.30;;;;;;;6.77;89.68;97354.09;5044268;28;20166;-68
2022/09/25 04:42:24;;;;;;;11.65;5.88;;;;;;;6.87;88.79;97364.72;5043973;28;20075;-69
2022/09/25 04:44:53;;;;;;;15.90;8.13;;;;;;;6.86;87.13;97374.09;5042330;28;20049;-69
2022/09/25 04:47:21;;;;;;;9.70;6.28;;;;;;;6.87;86.20;97372.97;5042647;28;20091;-69
2022/09/25 04:49:48;;;;;;;12.15;7.70;;;;;;;6.91;86.17;97362.88;5042253;28;20596;-69
2022/09/25 04:52:17;;;;;;;11.82;6.55;;;;;;;7.11;85.67;97363.97;5043696;28;20049;-69
2022/09/25 04:54:44;;;;;;;10.23;6.32;;;;;;;7.40;86.43;97356.34;5043239;28;20596;-69
2022/09/25 04:57:16;;;;;;;11.75;6.13;;;;;;;7.16;86.24;97367.31;5043558;28;20049;-70
2022/09/25 05:00:05;;;;;;;10.20;6.15;;;;;;;6.43;87.71;97260.06;5045725;28;20049;-69
2022/09/25 05:02:31;;;;;;;8.50;5.43;;;;;;;7.45;88.08;97364.41;5047819;28;20151;-69
2022/09/25 05:04:58;;;;;;;6.70;4.82;;;;;;;6.64;87.06;97194.78;5047484;28;20150;-69
2022/09/25 05:07:25;;;;;;;6.68;4.97;;;;;;;7.79;84.19;97373.38;5047668;28;20045;-69
2022/09/25 05:09:52;;;;;;;5.93;4.50;;;;;;;8.07;84.50;97374.28;5047786;28;20084;-69
2022/09/25 05:12:19;;;;;;;6.88;4.80;;;;;;;8.37;83.82;97375.66;5046074;28;20172;-69
2022/09/25 05:14:46;;;;;;;6.10;5.07;;;;;;;7.84;83.53;97304.22;5046701;28;20065;-69
2022/09/25 05:17:13;;;;;;;7.03;4.68;;;;;;;6.58;79.60;97130.06;5047433;28;20085;-69
2022/09/25 05:19:39;;;;;;;13.50;5.93;;;;;;;7.40;80.34;97254.38;5019168;28;20131;-69
2022/09/25 05:22:06;;;;;;;7.72;5.00;;;;;;;7.84;80.25;97329.03;5025579;28;20136;-69
2022/09/25 05:24:34;;;;;;;9.30;4.97;;;;;;;7.49;79.59;97266.09;5025865;28;20156;-69
2022/09/25 05:27:01;;;;;;;11.45;5.22;;;;;;;8.46;80.29;97387.38;5026109;28;20057;-69
2022/09/25 05:29:27;;;;;;;10.93;5.40;;;;;;;8.94;78.36;97377.00;5025821;28;20131;-69
2022/09/25 05:31:55;;;;;;;8.40;5.30;;;;;;;6.77;77.52;96985.22;5025900;28;20058;-70
2022/09/25 05:34:21;;;;;;;13.52;5.40;;;;;;;7.74;76.02;97099.47;5026645;28;20136;-70
2022/09/25 05:36:48;;;;;;;9.60;6.65;;;;;;;9.66;75.79;97380.53;5027012;28;20058;-70
2022/09/25 05:39:15;;;;;;;15.57;7.47;;;;;;;9.49;74.41;97323.59;5026821;28;20137;-69
2022/09/25 05:41:42;;;;;;;14.68;8.15;;;;;;;9.92;74.90;97381.59;5026945;28;20509;-69
2022/09/25 05:44:08;;;;;;;8.50;6.28;;;;;;;9.96;75.00;97384.44;5026985;28;20058;-70
2022/09/25 05:46:35;;;;;;;10.63;6.82;;;;;;;9.98;75.13;97388.47;5026923;28;20065;-70
2022/09/25 05:49:03;;;;;;;13.07;7.47;;;;;;;9.18;73.98;97246.19;5026564;28;20053;-70
2022/09/25 05:51:31;;;;;;;15.65;7.93;;;;;;;10.24;74.19;97377.66;5025282;28;20111;-70
2022/09/25 05:53:59;;;;;;;14.65;6.75;;;;;;;10.39;73.29;97362.19;5025980;28;20080;-70
2022/09/25 05:56:26;;;;;;;10.40;7.35;;;;;;;10.14;73.85;97320.09;5024808;28;20053;-70
2022/09/25 05:58:53;;;;;;;13.30;7.05;;;;;;;10.58;73.74;97374.09;5025189;28;20421;-70
2022/09/25 06:01:20;;;;;;;10.80;6.85;;;;;;;10.40;72.81;97341.66;5024453;28;20092;-71
2022/09/25 06:03:47;;;;;;;11.10;7.05;;;;;;;10.56;73.13;97343.19;5025127;28;20046;-70
2022/09/25 06:06:14;;;;;;;17.23;7.18;;;;;;;9.94;73.33;97254.75;5026187;28;20049;-70
2022/09/25 06:08:40;;;;;;;7.97;5.88;;;;;;;11.01;72.32;97375.81;5024759;28;20486;-70
2022/09/25 06:11:07;;;;;;;8.63;6.10;;;;;;;11.28;71.55;97368.41;5024601;28;20088;-71
2022/09/25 06:13:35;;;;;;;8.95;6.45;;;;;;;11.49;70.36;97377.94;5026379;28;20085;-70
2022/09/25 06:16:04;;;;;;;9.35;5.70;;;;;;;10.54;69.99;97206.25;5025953;28;20570;-71
2022/09/25 06:18:32;;;;;;;6.75;5.13;;;;;;;11.66;69.53;97373.94;5025935;28;20438;-69
2022/09/25 06:21:04;;;;;;;6.82;5.30;;;;;;;11.76;67.52;97367.78;5024274;28;20119;-70
2022/09/25 06:23:30;;;;;;;6.35;5.28;;;;;;;12.13;65.74;97368.78;5026145;28;20503;-71
2022/09/25 06:26:02;;;;;;;7.45;4.70;;;;;;;11.49;63.61;97221.81;5025599;28;20065;-70
2022/09/25 06:28:29;;;;;;;6.28;5.38;;;;;;;12.70;63.15;97368.47;5026640;28;20061;-71
2022/09/25 06:30:59;;;;;;;9.40;4.95;;;;;;;12.89;63.50;97354.44;5024764;28;20058;-72
2022/09/25 06:33:26;;;;;;;6.47;5.50;;;;;;;13.21;63.54;97354.84;5026390;28;20085;-72
2022/09/25 06:35:53;;;;;;;6.85;5.53;;;;;;;13.41;63.11;97359.84;5024029;28;20057;-72
2022/09/25 06:38:20;;;;;;;6.13;5.40;;;;;;;12.30;61.70;97181.38;5026376;28;20076;-72
2022/09/25 06:40:46;;;;;;;7.43;5.38;;;;;;;12.16;62.11;97105.03;5025528;28;20137;-72
2022/09/25 06:43:15;;;;;;;6.57;5.20;;;;;;;13.62;60.89;97304.38;5026246;28;20165;-72
2022/09/25 06:45:42;;;;;;;7.70;5.15;;;;;;;13.69;59.99;97287.75;5025208;28;20111;-69
2022/09/25 06:48:12;;;;;;;8.55;5.82;;;;;;;14.14;59.01;97358.16;5024498;28;20473;-70
2022/09/25 06:50:42;;;;;;;15.85;9.07;;;;;;;14.41;58.58;97357.59;5024381;28;20053;-72
2022/09/25 06:53:10;;;;;;;5.97;4.68;;;;;;;14.73;56.04;97361.38;5026258;28;20084;-72
2022/09/25 06:55:37;;;;;;;6.13;5.20;;;;;;;14.71;55.27;97315.56;5025497;28;20347;-71
2022/09/25 06:58:06;;;;;;;6.55;5.60;;;;;;;14.79;55.31;97359.03;5025922;28;20057;-71
2022/09/25 07:00:33;;;;;;;6.00;5.25;;;;;;;14.52;55.58;97360.47;5025318;28;20061;-71
2022/09/25 07:05:47;;;;;;;5.60;4.70;;;;;;;13.96;54.92;97217.97;5025391;28;20061;-70
2022/09/25 07:08:16;;;;;;;5.13;4.53;;;;;;;14.86;53.66;97331.97;5025786;28;20081;-72
2022/09/25 07:10:49;;;;;;;5.72;4.72;;;;;;;15.16;53.71;97349.25;5023854;28;21199;-70
2022/09/25 07:13:17;;;;;;;7.40;5.13;;;;;;;14.95;52.93;97298.16;5025744;28;20136;-70
2022/09/25 07:15:51;;;;;;;5.22;3.92;;;;;;;15.50;52.17;97358.19;5024328;28;20160;-70
2022/09/25 07:18:19;;;;;;;5.30;4.38;;;;;;;15.60;51.31;97339.84;5024028;28;20061;-70
2022/09/25 07:20:46;;;;;;;6.93;4.00;;;;;;;14.50;50.65;97210.31;5023912;28;20077;-70
2022/09/25 07:23:14;;;;;;;6.22;4.47;;;;;;;15.61;51.51;97341.44;5025738;28;20049;-70
2022/09/25 07:25:40;;;;;;;5.68;4.95;;;;;;;15.93;50.04;97348.66;5024627;28;20136;-63
2022/09/25 07:28:08;;;;;;;4.72;4.05;;;;;;;16.03;48.96;97347.88;5023578;28;20140;-63
2022/09/25 07:30:34;;;;;;;4.43;3.70;;;;;;;15.28;49.76;97205.75;5023232;28;20093;-62
2022/09/25 07:33:01;;;;;;;8.88;6.32;;;;;;;15.92;50.19;97301.56;5025022;28;20119;-63
2022/09/25 07:35:28;;;;;;;4.60;4.20;;;;;;;16.26;50.21;97345.50;5023260;28;20166;-63
2022/09/25 07:37:58;;;;;;;5.70;3.75;;;;;;;16.04;49.89;97282.44;5024995;28;20526;-62
2022/09/25 07:40:26;;;;;;;4.40;4.00;;;;;;;16.40;48.42;97339.91;5023012;28;20516;-63
2022/09/25 07:42:58;;;;;;;4.13;3.70;;;;;;;16.73;48.27;97337.84;5025294;28;20057;-63
2022/09/25 07:45:26;;;;;;;4.40;4.00;;;;;;;16.92;47.50;97324.22;5023950;28;20924;-62
2022/09/25 07:47:59;;;;;;;4.65;3.72;;;;;;;16.80;44.63;97284.69;5023417;28;20080;-64
2022/09/25 07:50:30;;;;;;;3.90;3.45;;;;;;;16.41;45.41;97329.50;5024752;28;20140;-63
2022/09/25 07:52:57;;;;;;;4.22;3.83;;;;;;;16.63;46.14;97320.72;5024841;28;20401;-63
2022/09/25 07:55:26;;;;;;;4.25;3.85;;;;;;;16.60;46.46;97301.94;5024252;28;20053;-64
2022/09/25 07:57:57;;;;;;;5.15;3.53;;;;;;;16.23;45.46;97198.13;5023547;28;20053;-65
2022/09/25 08:00:24;;;;;;;7.50;5.50;;;;;;;17.03;45.53;97277.41;5024802;28;20072;-63
2022/09/25 08:02:58;;;;;;;6.88;4.57;;;;;;;17.48;46.00;97292.41;5024895;28;20099;-65
2022/09/25 08:05:26;;;;;;;4.03;3.67;;;;;;;17.58;45.43;97309.13;5024641;28;20126;-64
2022/09/25 08:07:53;;;;;;;5.60;5.10;;;;;;;17.27;45.10;97230.88;5024667;28;20053;-63
2022/09/25 08:10:21;;;;;;;6.32;4.25;;;;;;;17.99;44.40;97312.03;5024611;28;20065;-64
2022/09/25 08:12:48;;;;;;;5.72;5.25;;;;;;;17.88;45.24;97311.31;5025163;28;20079;-63
2022/09/25 08:15:15;;;;;;;4.50;4.10;;;;;;;18.15;44.21;97311.53;5024505;28;20072;-64
2022/09/25 08:17:42;;;;;;;5.22;4.38;;;;;;;17.96;43.80;97268.81;5024679;28;20079;-64
2022/09/25 08:20:09;;;;;;;6.10;4.18;;;;;;;17.53;43.51;97250.72;5024183;28;20543;-63
2022/09/25 08:22:36;;;;;;;5.90;4.53;;;;;;;17.92;43.64;97270.06;5024481;28;20060;-63
2022/09/25 08:25:03;;;;;;;4.88;4.03;;;;;;;18.45;43.54;97295.66;5023441;28;20059;-63
2022/09/25 08:27:31;;;;;;;7.22;5.05;;;;;;;18.74;43.46;97296.97;5024319;28;20068;-67
2022/09/25 08:29:57;;;;;;;4.40;4.07;;;;;;;18.93;42.37;97296.34;5024236;28;20050;-64
2022/09/25 08:32:24;;;;;;;4.25;3.83;;;;;;;18.44;42.06;97249.19;5025847;28;20515;-65
2022/09/25 08:34:51;;;;;;;4.00;3.70;;;;;;;19.02;42.64;97291.00;5028385;28;20575;-64
2022/09/25 08:37:19;;;;;;;6.85;5.03;;;;;;;19.02;42.24;97290.22;5028220;28;20107;-64
2022/09/25 08:39:46;;;;;;;10.02;7.13;;;;;;;18.53;43.50;97218.63;5028143;28;20508;-65
2022/09/25 08:42:25;;;;;;;6.35;5.40;;;;;;;19.32;42.73;97271.41;5026590;28;20617;-64
2022/09/25 08:49:00;;;;;;;8.05;6.30;;;;;;;19.40;43.53;97270.09;5028253;28;20143;-64
2022/09/25 08:50:37;;;;;;;8.68;5.85;;;;;;;19.73;43.19;97267.63;5028087;28;20078;-64
2022/09/25 08:53:22;;;;;;;5.10;3.95;;;;;;;17.55;43.06;97035.44;5028243;28;20695;-63
2022/09/25 08:58:41;;;;;;;5.60;3.70;;;;;;;18.84;43.28;97255.94;5028124;28;20057;-64
2022/09/25 09:01:16;;;;;;;5.32;4.60;;;;;;;19.00;43.32;97217.63;5027987;28;20053;-66
2022/09/25 09:04:04;;;;;;;8.55;4.85;;;;;;;18.75;43.06;97113.31;5042583;28;20071;-64
2022/09/25 09:06:33;;;;;;;5.65;4.90;;;;;;;19.80;42.38;97253.44;5027505;28;20060;-66
2022/09/25 09:09:10;;;;;;;10.25;7.85;;;;;;;19.20;42.33;97201.72;5027622;28;20776;-63
2022/09/25 09:11:39;;;;;;;8.88;6.63;;;;;;;19.93;42.83;97254.44;5026312;28;20050;-63
2022/09/25 09:14:17;;;;;;;7.43;5.50;;;;;;;20.02;42.96;97241.41;5026044;28;20444;-63
2022/09/25 09:16:53;;;;;;;5.35;4.32;;;;;;;20.03;42.66;97200.81;5027116;28;20496;-65
2022/09/25 09:19:21;;;;;;;6.18;3.67;;;;;;;19.67;43.62;97236.38;5025964;28;20053;-63
2022/09/25 09:22:08;;;;;;;4.95;4.55;;;;;;;20.09;43.77;97223.63;5027317;28;20141;-64
2022/09/25 09:25:01;;;;;;;6.47;4.63;;;;;;;20.35;43.24;97223.56;5027515;28;20172;-63
2022/09/25 09:27:55;;;;;;;8.68;6.18;;;;;;;20.74;42.72;97220.00;5025239;28;20083;-66
2022/09/25 09:30:44;;;;;;;4.72;4.32;;;;;;;20.79;42.09;97213.88;4791976;28;5001220;-64
2022/09/25 09:33:16;;;;;;;8.65;6.07;;;;;;;20.99;42.95;97220.34;5035803;28;20467;-64
2022/09/25 09:35:58;;;;;;;6.27;4.60;;;;;;;21.00;42.29;97216.28;5027213;28;20414;-64
2022/09/25 09:38:41;;;;;;;5.00;4.55;;;;;;;21.10;42.51;97220.09;5025932;28;20357;-65
2022/09/25 09:41:25;;;;;;;5.05;4.65;;;;;;;20.93;42.01;97222.00;5027254;28;20057;-63
2022/09/25 09:44:05;;;;;;;7.55;5.15;;;;;;;21.12;42.31;97214.84;5026083;28;20107;-65
2022/09/25 09:46:41;;;;;;;8.52;5.43;;;;;;;21.22;41.86;97211.78;5025616;28;20587;-64
2022/09/25 09:49:45;;;;;;;5.03;4.55;;;;;;;21.09;41.82;97208.03;5025460;28;20437;-64
2022/09/25 09:52:18;;;;;;;9.50;6.80;;;;;;;21.31;41.67;97203.50;5027058;28;20420;-65
2022/09/25 09:54:54;;;;;;;6.93;4.50;;;;;;;21.64;41.21;97199.50;5025527;28;20378;-65
2022/09/25 09:57:25;;;;;;;6.22;5.60;;;;;;;21.98;40.89;97185.81;5027380;28;20572;-65
2022/09/25 10:00:02;;;;;;;6.88;6.18;;;;;;;21.99;40.81;97193.03;5026799;28;20064;-64
2022/09/25 10:02:51;;;;;;;7.45;6.22;;;;;;;22.18;40.50;97161.09;5027152;28;20152;-64
2022/09/25 10:05:25;;;;;;;5.95;5.45;;;;;;;22.23;40.57;97169.03;5026370;28;20057;-64
2022/09/25 10:07:53;;;;;;;4.95;4.65;;;;;;;21.66;40.34;97092.72;5027025;28;20061;-64
2022/09/25 10:10:32;;;;;;;4.90;4.55;;;;;;;21.67;41.61;97176.06;5026205;28;20053;-63
2022/09/25 10:13:05;;;;;;;6.50;5.15;;;;;;;21.26;42.35;97125.13;5026444;28;20127;-64
2022/09/25 10:15:43;;;;;;;;;;;;;;;21.97;41.81;97172.91;5026338;28;20119;-64
2022/09/25 10:18:12;;;;;;;4.78;4.47;;;;;;;21.73;41.33;97134.03;5025652;28;19986;-65
2022/09/25 10:20:48;;;;;;;7.80;4.45;;;;;;;21.80;40.64;97109.31;5025796;28;20057;-65
2022/09/25 10:23:31;;;;;;;5.20;4.70;;;;;;;21.63;40.21;97044.88;5024799;28;20057;-63
2022/09/25 10:25:58;;;;;;;5.20;4.70;;;;;;;22.32;40.84;97160.69;5024990;28;20061;-63
2022/09/25 10:28:30;;;;;;;8.82;5.90;;;;;;;21.39;41.27;97075.28;5026415;28;20049;-64
2022/09/25 10:30:58;;;;;;;7.32;5.18;;;;;;;22.13;40.76;97155.97;5025934;28;20054;-65
2022/09/25 10:33:29;;;;;;;5.20;4.70;;;;;;;22.54;40.67;97165.81;5025811;28;20560;-65
2022/09/25 10:35:56;;;;;;;5.40;5.10;;;;;;;22.81;40.33;97154.94;5025787;28;20049;-64
2022/09/25 10:38:38;;;;;;;4.60;4.30;;;;;;;22.94;39.91;97158.56;5025775;28;20061;-64
2022/09/25 10:41:11;;;;;;;5.50;4.97;;;;;;;22.45;39.91;97074.03;5024238;28;20048;-64
2022/09/25 10:43:59;;;;;;;6.28;5.80;;;;;;;22.83;40.08;97156.06;5024184;28;20574;-64
2022/09/25 10:52:08;;;;;;;5.60;5.07;;;;;;;23.08;39.72;97144.03;5025697;28;20057;-64
2022/09/25 10:54:36;;;;;;;5.38;5.07;;;;;;;22.67;39.95;97107.34;5024806;28;20061;-64
2022/09/25 10:57:37;;;;;;;5.68;5.28;;;;;;;23.01;39.81;97136.56;5024631;28;20777;-64
2022/09/25 11:00:15;;;;;;;;;;;;;;;23.09;39.87;97134.28;5024992;28;20119;-66
2022/09/25 11:02:45;;;;;;;9.75;7.05;;;;;;;22.95;39.71;97089.53;5023797;28;20296;-63
2022/09/25 11:05:18;;;;;;;7.30;6.60;;;;;;;22.99;40.80;97130.56;5024827;28;20564;-62
2022/09/25 11:07:55;;;;;;;7.20;6.28;;;;;;;22.79;40.27;97030.28;5025183;28;20049;-64
2022/09/25 11:10:34;;;;;;;6.97;6.07;;;;;;;22.63;40.09;97052.97;5024585;28;20056;-64
2022/09/25 11:13:16;;;;;;;7.93;6.32;;;;;;;22.88;39.98;97016.28;5024853;28;20053;-63
2022/09/25 11:15:52;;;;;;;6.15;5.63;;;;;;;22.59;40.45;97091.84;5024637;28;20471;-63
2022/09/25 11:18:47;;;;;;;5.63;5.25;;;;;;;23.40;39.66;97104.25;5024121;28;20061;-62
2022/09/25 11:21:27;;;;;;;6.50;5.97;;;;;;;22.70;40.42;97078.19;5024920;28;20068;-65
2022/09/25 11:23:57;;;;;;;7.10;6.50;;;;;;;23.09;40.52;97114.50;5024854;28;20319;-63
2022/09/25 11:26:37;;;;;;;6.93;6.32;;;;;;;22.90;40.80;97105.00;5024692;28;20064;-65
2022/09/25 11:29:22;;;;;;;6.05;5.65;;;;;;;22.60;40.53;97011.50;5024608;28;20413;-63
2022/09/25 11:32:01;;;;;;;6.22;5.72;;;;;;;23.47;40.57;97092.72;5024524;28;20057;-65
2022/09/25 11:34:57;;;;;;;6.63;6.07;;;;;;;23.79;40.03;97086.75;5024602;28;20405;-65
2022/09/25 11:37:35;;;;;;;5.90;5.38;;;;;;;21.70;39.38;96774.81;5022682;28;20076;-65
2022/09/25 11:43:30;;;;;;;6.32;5.75;;;;;;;22.53;40.57;97085.13;5024560;28;20114;-64
2022/09/25 11:46:07;;;;;;;5.80;5.30;;;;;;;22.90;40.67;97081.59;5023879;28;20064;-63
2022/09/25 11:49:09;;;;;;;6.70;6.10;;;;;;;22.75;40.38;97092.53;5024814;28;20151;-63
2022/09/25 11:52:01;;;;;;;6.88;6.28;;;;;;;21.16;39.66;96776.81;5022603;28;20061;-64
2022/09/25 11:54:52;;;;;;;6.55;6.03;;;;;;;23.09;39.77;97086.25;5023128;28;20483;-64
2022/09/25 11:57:30;;;;;;;7.57;5.57;;;;;;;23.31;38.22;97085.16;5022882;28;20107;-64
2022/09/25 12:00:45;;;;;;;5.65;5.22;;;;;;;23.26;38.75;97087.75;5022685;28;20413;-64
2022/09/25 12:03:37;;;;;;;6.10;5.55;;;;;;;23.63;38.60;97084.09;5001880;28;20061;-66
2022/09/25 12:06:13;;;;;;;6.07;5.68;;;;;;;24.18;36.86;97074.13;5021994;28;20083;-63
2022/09/25 12:09:15;;;;;;;6.70;6.10;;;;;;;23.74;37.32;97068.31;5023505;28;20092;-65
2022/09/25 12:12:14;;;;;;;5.75;5.35;;;;;;;23.26;37.84;97065.13;4991151;28;20068;-64
2022/09/25 12:15:13;;;;;;;11.55;9.50;;;;;;;23.80;36.22;97065.72;5012318;28;20073;-64
2022/09/25 12:18:00;;;;;;;6.72;6.22;;;;;;;23.45;36.49;97061.25;4999234;28;20061;-65
2022/09/25 12:20:59;;;;;;;8.20;7.15;;;;;;;22.79;36.51;96883.41;5003799;28;20552;-62
2022/09/25 12:23:37;;;;;;;6.53;5.68;;;;;;;23.71;37.06;97054.31;5003954;28;20057;-64
2022/09/25 12:26:59;;;;;;;6.90;6.30;;;;;;;23.45;37.51;97061.25;5003722;28;20054;-63
2022/09/25 12:29:32;;;;;;;8.25;7.25;;;;;;;23.81;36.16;97044.66;4979471;28;20087;-64
2022/09/25 12:32:03;;;;;;;7.60;6.27;;;;;;;23.34;36.71;97052.34;5003525;28;20513;-64
2022/09/25 12:34:54;;;;;;;5.63;5.05;;;;;;;23.35;36.33;97045.44;5004310;28;20536;-63